M/V Yankee Clipper — WDC3923 — position and weather

sailwx.info

Track history (hours):
 
Tides and Currents Weather Stations Pressure Air Temp Water Temp Dewpoint Dewpoint Depression Visibility Wind Speed Wind Dir Waves Ship Positions

M/V Yankee Clipper

Owner: M/V Yankee Clipper, Inc., Seattle, WA. More information available from US FCC via Universal Licensing System and Coast Guard Vessel Documentation Center.

Last reported at 2017-Jun-15 16:06 UTC. Time now 2017-Jun-23 23:54 UTC.
Position N 52°35' W 128°28'.
Warning: this ship's position is 8 days out of date.

Length 27 m; draft 4 m.

Type: Fishing. MMSI: 367016340.

Date/timePositionNaut miles runAvg speedWind from/ knotsBaromVisibWave heightAir tempDewpointWater temp
2017-Jun-15 16:06N 52°35' W 128°28'2 8.6
2017-Jun-15 15:54N 52°34' W 128°28'4 9.1
2017-Jun-15 15:30N 52°30' W 128°27'4 8.1
2017-Jun-15 14:59N 52°26' W 128°28'8 8.1
2017-Jun-15 14:00N 52°18' W 128°30'5 9.2
2017-Jun-15 13:28N 52°15' W 128°23'6 9.7
2017-Jun-15 12:52N 52°14' W 128°13'4 9.0
2017-Jun-15 12:28N 52°12' W 128°08'3 7.4
2017-Jun-15 12:00N 52°09' W 128°08'4 8.3
2017-Jun-15 11:30N 52°05' W 128°06'610.0
2017-Jun-15 10:53N 52°04' W 127°56'3 8.8
2017-Jun-15 10:30N 52°01' W 127°56'5 9.5
2017-Jun-15 10:00N 51°56' W 127°56'5 9.7
2017-Jun-15 09:30N 51°51' W 127°56'5 9.7
2017-Jun-15 09:00N 51°46' W 127°56'510.1
2017-Jun-15 08:30N 51°41' W 127°55'510.5
2017-Jun-15 08:00N 51°36' W 127°53'510.5
2017-Jun-15 07:30N 51°31' W 127°51'510.1
2017-Jun-15 07:00N 51°26' W 127°51'510.0
2017-Jun-15 06:30N 51°21' W 127°52'5 9.6
2017-Jun-15 06:00N 51°16' W 127°52'4 9.0
2017-Jun-15 05:30N 51°12' W 127°51'4 9.1
2017-Jun-15 05:00N 51°08' W 127°47'5 9.7
2017-Jun-15 04:30N 51°04' W 127°42'510.0
2017-Jun-15 04:00N 51°01' W 127°36'5 9.6
2017-Jun-15 03:30N 50°58' W 127°30'5 9.9
2017-Jun-15 03:00N 50°55' W 127°24'5 9.8
2017-Jun-15 02:29N 50°52' W 127°17'5 9.3
2017-Jun-15 02:00N 50°50' W 127°11'5 9.4
2017-Jun-15 01:30N 50°47' W 127°05'55 9.1
2017-Jun-14 19:30N 50°23' W 125°48'611.1
2017-Jun-14 18:57N 50°22' W 125°38'711.5
2017-Jun-14 18:22N 50°20' W 125°28'4 9.4
2017-Jun-14 17:56N 50°17' W 125°24'410.3
2017-Jun-14 17:30N 50°13' W 125°22'510.5
2017-Jun-14 17:00N 50°08' W 125°21'5 9.6
2017-Jun-14 16:30N 50°04' W 125°15'5 9.2
2017-Jun-14 16:00N 50°00' W 125°13'4 8.7
2017-Jun-14 15:30N 49°57' W 125°08'5 9.3
2017-Jun-14 15:00N 49°54' W 125°03'5 9.4
2017-Jun-14 14:30N 49°50' W 124°58'9 9.3
2017-Jun-14 13:30N 49°43' W 124°47'4 8.6
2017-Jun-14 13:01N 49°41' W 124°43'4 8.6
2017-Jun-14 12:31N 49°38' W 124°38'4 8.5
2017-Jun-14 12:00N 49°35' W 124°33'4 8.3
2017-Jun-14 11:29N 49°32' W 124°28'35 7.9
2017-Jun-14 07:00N 49°13' W 123°43'4 7.5
2017-Jun-14 06:29N 49°11' W 123°37'12 8.4
2017-Jun-14 05:03N 49°02' W 123°24'1 7.6
2017-Jun-14 04:58N 49°02' W 123°24'13 8.3
2017-Jun-14 03:24N 48°53' W 123°09'13 9.2
2017-Jun-14 01:59N 48°47' W 122°52'5 8.8
2017-Jun-14 01:28N 48°45' W 122°46'510.8
2017-Jun-14 01:00N 48°40' W 122°43'611.2
2017-Jun-14 00:30N 48°35' W 122°45'511.0
2017-Jun-14 00:00N 48°30' W 122°44'5 9.3
2017-Jun-13 23:30N 48°25' W 122°44'4 8.3
2017-Jun-13 23:00N 48°21' W 122°45'17 8.0
2017-Jun-13 20:52N 48°04' W 122°38'410.5
2017-Jun-13 20:30N 48°01' W 122°36'510.5
2017-Jun-13 20:00N 47°57' W 122°32'5 9.6
2017-Jun-13 19:30N 47°53' W 122°28'5 9.5
2017-Jun-13 19:00N 47°48' W 122°26'5 9.6
2017-Jun-13 18:30N 47°43' W 122°25'3 6.8
2017-Jun-13 18:00N 47°40' W 122°24'1 1.5
2017-Jun-13 17:30N 47°40' W 122°23'0 0.0
2017-Jun-13 17:00N 47°40' W 122°23'0 0.0
2017-Jun-13 16:30N 47°40' W 122°23'0 0.0
2017-Jun-13 16:00N 47°40' W 122°23'0 0.0
2017-Jun-13 15:30N 47°40' W 122°23'0 0.0
2017-Jun-13 15:00N 47°40' W 122°23'0 0.0
2017-Jun-13 14:30N 47°40' W 122°23'0 0.0
2017-Jun-13 13:30N 47°40' W 122°23'0 0.0
2017-Jun-13 13:00N 47°40' W 122°23'0 0.0
2017-Jun-13 12:30N 47°40' W 122°23'0 0.0
2017-Jun-13 12:00N 47°40' W 122°23'0 0.0
2017-Jun-13 11:30N 47°40' W 122°23'0 0.0
2017-Jun-13 11:00N 47°40' W 122°23'0 0.0
2017-Jun-13 10:30N 47°40' W 122°23'0 0.0
2017-Jun-13 10:00N 47°40' W 122°23'0 0.0
2017-Jun-13 09:30N 47°40' W 122°23'0 0.0
2017-Jun-13 09:00N 47°40' W 122°23'0 0.0
2017-Jun-13 08:30N 47°40' W 122°23'0 0.0
2017-Jun-13 08:00N 47°40' W 122°23'0 0.0
2017-Jun-13 07:30N 47°40' W 122°23'0 0.0
2017-Jun-13 07:00N 47°40' W 122°23'0 0.0
2017-Jun-13 06:30N 47°40' W 122°23'0 0.0
2017-Jun-13 06:00N 47°40' W 122°23'0 0.0
2017-Jun-13 05:30N 47°40' W 122°23'0 0.0
2017-Jun-13 05:00N 47°40' W 122°23'0 0.0
2017-Jun-13 04:30N 47°40' W 122°23'0 0.0
2017-Jun-13 04:00N 47°40' W 122°23'0 0.0
2017-Jun-13 03:30N 47°40' W 122°23'0 0.0
2017-Jun-13 03:00N 47°40' W 122°23'0 0.0
2017-Jun-13 02:30N 47°40' W 122°23'0 0.0
2017-Jun-13 02:00N 47°40' W 122°23'0 0.0
2017-Jun-13 01:30N 47°40' W 122°23'0 0.0
2017-Jun-13 01:00N 47°40' W 122°23'0 0.0
2017-Jun-13 00:30N 47°40' W 122°23'0 0.0
2017-Jun-13 00:00N 47°40' W 122°23'0 0.0
2017-Jun-12 23:30N 47°40' W 122°23'0 0.0
2017-Jun-12 23:00N 47°40' W 122°23'0 0.0
2017-Jun-12 22:30N 47°40' W 122°23'0 0.0
2017-Jun-12 22:00N 47°40' W 122°23'0 0.0
2017-Jun-12 21:30N 47°40' W 122°23'0 0.0
2017-Jun-12 21:00N 47°40' W 122°23'0 0.0
2017-Jun-12 20:30N 47°40' W 122°23'0 0.0
2017-Jun-12 20:00N 47°40' W 122°23'0 0.0
2017-Jun-12 19:30N 47°40' W 122°23'0 0.0
2017-Jun-12 19:00N 47°40' W 122°23'0 0.0
2017-Jun-12 18:30N 47°40' W 122°23'0 0.0
2017-Jun-12 18:00N 47°40' W 122°23'0 0.0
2017-Jun-12 17:30N 47°40' W 122°23'0 0.0
2017-Jun-12 17:00N 47°40' W 122°23'0 0.0
2017-Jun-12 16:30N 47°40' W 122°23'0 0.0
2017-Jun-12 16:00N 47°40' W 122°23'0 0.0
2017-Jun-12 15:30N 47°40' W 122°23'0 0.0
2017-Jun-12 15:00N 47°40' W 122°23'0 0.0
2017-Jun-12 14:30N 47°40' W 122°23'0 0.0
2017-Jun-12 13:30N 47°40' W 122°23'0 0.0
2017-Jun-12 13:00N 47°40' W 122°23'0 0.0
2017-Jun-12 12:30N 47°40' W 122°23'0 0.0
2017-Jun-12 12:00N 47°40' W 122°23'0 0.0
2017-Jun-12 11:30N 47°40' W 122°23'0 0.0
2017-Jun-12 11:00N 47°40' W 122°23'0 0.0
2017-Jun-12 10:31N 47°40' W 122°23'0 0.0
2017-Jun-12 10:00N 47°40' W 122°23'0 0.0
2017-Jun-12 09:30N 47°40' W 122°23'0 0.0
2017-Jun-12 09:00N 47°40' W 122°23'0 0.0
2017-Jun-12 08:30N 47°40' W 122°23'0 0.0
2017-Jun-12 08:00N 47°40' W 122°23'0 0.0
2017-Jun-12 07:30N 47°40' W 122°23'0 0.0
2017-Jun-12 07:00N 47°40' W 122°23'0 0.0
2017-Jun-12 06:30N 47°40' W 122°23'0 0.0
2017-Jun-12 06:00N 47°40' W 122°23'0 0.0
2017-Jun-12 05:30N 47°40' W 122°23'0 0.0
2017-Jun-12 05:00N 47°40' W 122°23'0 0.0
2017-Jun-12 04:31N 47°40' W 122°23'0 0.0
2017-Jun-12 04:00N 47°40' W 122°23'0 0.0
2017-Jun-12 03:30N 47°40' W 122°23'0 0.0
2017-Jun-12 03:00N 47°40' W 122°23'0 0.0
2017-Jun-12 02:30N 47°40' W 122°23'0 0.0
2017-Jun-12 02:00N 47°40' W 122°23'0 0.0
2017-Jun-12 01:30N 47°40' W 122°23'0 0.0
2017-Jun-12 01:00N 47°40' W 122°23'0 0.0
2017-Jun-12 00:30N 47°40' W 122°23'0 0.0
2017-Jun-12 00:00N 47°40' W 122°23'0 0.0
2017-Jun-11 23:30N 47°40' W 122°23'0 0.0
2017-Jun-11 23:00N 47°40' W 122°23'0 0.0
2017-Jun-11 22:30N 47°40' W 122°23'0 0.0
2017-Jun-11 22:00N 47°40' W 122°23'0 0.0
2017-Jun-11 21:30N 47°40' W 122°23'0 0.0
2017-Jun-11 21:00N 47°40' W 122°23'0 0.0
2017-Jun-11 20:30N 47°40' W 122°23'0 0.0
2017-Jun-11 20:00N 47°40' W 122°23'0 0.0
2017-Jun-11 19:30N 47°40' W 122°23'0 0.0
2017-Jun-11 19:00N 47°40' W 122°23'0 0.0
2017-Jun-11 18:30N 47°40' W 122°23'0 0.0
2017-Jun-11 18:00N 47°40' W 122°23'0 0.0
2017-Jun-11 17:30N 47°40' W 122°23'0 0.0
2017-Jun-11 17:00N 47°40' W 122°23'0 0.0
2017-Jun-11 16:30N 47°40' W 122°23'0 0.0
2017-Jun-11 16:00N 47°40' W 122°23'0 0.0
2017-Jun-11 15:30N 47°40' W 122°23'0 0.0
2017-Jun-11 15:00N 47°40' W 122°23'0 0.0
2017-Jun-11 14:30N 47°40' W 122°23'0 0.0
2017-Jun-11 13:30N 47°40' W 122°23'0 0.0
2017-Jun-11 13:00N 47°40' W 122°23'0 0.0
2017-Jun-11 12:30N 47°40' W 122°23'0 0.0
2017-Jun-11 12:00N 47°40' W 122°23'0 0.0
2017-Jun-11 11:30N 47°40' W 122°23'0 0.0
2017-Jun-11 11:00N 47°40' W 122°23'0 0.0
2017-Jun-11 10:30N 47°40' W 122°23'0 0.0
2017-Jun-11 10:00N 47°40' W 122°23'0 0.0
2017-Jun-11 09:30N 47°40' W 122°23'0 0.0
2017-Jun-11 09:00N 47°40' W 122°23'0 0.0
2017-Jun-11 08:30N 47°40' W 122°23'0 0.0
2017-Jun-11 08:00N 47°40' W 122°23'0 0.0
2017-Jun-11 07:30N 47°40' W 122°23'0 0.0
2017-Jun-11 07:00N 47°40' W 122°23'0 0.0
2017-Jun-11 06:30N 47°40' W 122°23'0 0.0
2017-Jun-11 06:00N 47°40' W 122°23'0 0.0
2017-Jun-11 05:30N 47°40' W 122°23'0 0.0
2017-Jun-11 05:00N 47°40' W 122°23'0 0.0
2017-Jun-11 04:30N 47°40' W 122°23'0 0.0
2017-Jun-11 04:00N 47°40' W 122°23'0 0.0
2017-Jun-11 03:30N 47°40' W 122°23'0 0.0
2017-Jun-11 03:00N 47°40' W 122°23'0 0.0
2017-Jun-11 02:30N 47°40' W 122°23'0 0.0
2017-Jun-11 02:00N 47°40' W 122°23'0 0.0
2017-Jun-11 01:30N 47°40' W 122°23'0 0.0
2017-Jun-11 01:00N 47°40' W 122°23'0 0.0
2017-Jun-11 00:30N 47°40' W 122°23'0 0.0
2017-Jun-11 00:00N 47°40' W 122°23'0 0.0
2017-Jun-10 23:30N 47°40' W 122°23'0 0.0
2017-Jun-10 23:00N 47°40' W 122°23'0 0.0
2017-Jun-10 22:30N 47°40' W 122°23'0 0.0
2017-Jun-10 22:00N 47°40' W 122°23'0 0.0
2017-Jun-10 21:30N 47°40' W 122°23'0 0.0
2017-Jun-10 21:00N 47°40' W 122°23'0 0.0
2017-Jun-10 20:30N 47°40' W 122°23'0 0.0
2017-Jun-10 20:00N 47°40' W 122°23'0 0.0
2017-Jun-10 19:30N 47°40' W 122°23'0 0.0
2017-Jun-10 19:00N 47°40' W 122°23'0 0.0
2017-Jun-10 18:30N 47°40' W 122°23'0 0.0
2017-Jun-10 18:00N 47°40' W 122°23'0 0.0
2017-Jun-10 17:30N 47°40' W 122°23'0 0.0
2017-Jun-10 17:01N 47°40' W 122°23'0 0.0
2017-Jun-10 16:30N 47°40' W 122°23'0 0.0
2017-Jun-10 16:00N 47°40' W 122°23'0 0.0
2017-Jun-10 15:30N 47°40' W 122°23'0 0.0
2017-Jun-10 15:00N 47°40' W 122°23'0 0.0
2017-Jun-10 14:00N 47°40' W 122°23'0 0.0
2017-Jun-10 13:30N 47°40' W 122°23'0 0.0
2017-Jun-10 13:00N 47°40' W 122°23'0 0.0
2017-Jun-10 12:30N 47°40' W 122°23'0 0.0
2017-Jun-10 12:00N 47°40' W 122°23'0 0.0
2017-Jun-10 11:30N 47°40' W 122°23'0 0.0
2017-Jun-10 11:00N 47°40' W 122°23'0 0.0
2017-Jun-10 10:30N 47°40' W 122°23'0 0.0
2017-Jun-10 10:00N 47°40' W 122°23'0 0.0
2017-Jun-10 09:30N 47°40' W 122°23'0 0.0
2017-Jun-10 09:00N 47°40' W 122°23'0 0.0
2017-Jun-10 08:30N 47°40' W 122°23'0 0.0
2017-Jun-10 08:00N 47°40' W 122°23'0 0.0
2017-Jun-10 07:30N 47°40' W 122°23'0 0.0
2017-Jun-10 07:00N 47°40' W 122°23'0 0.0
2017-Jun-10 06:30N 47°40' W 122°23'0 0.0
2017-Jun-10 06:00N 47°40' W 122°23'0 0.0
2017-Jun-10 05:30N 47°40' W 122°23'0 0.0
2017-Jun-10 05:00N 47°40' W 122°23'0 0.0
2017-Jun-10 04:30N 47°40' W 122°23'0 0.0
2017-Jun-10 04:00N 47°40' W 122°23'0 0.0
2017-Jun-10 03:30N 47°40' W 122°23'0 0.0
2017-Jun-10 03:00N 47°40' W 122°23'0 0.0
2017-Jun-10 02:30N 47°40' W 122°23'0 0.0
2017-Jun-10 02:00N 47°40' W 122°23'0 0.0
2017-Jun-10 01:30N 47°40' W 122°23'0 0.0
2017-Jun-10 01:00N 47°40' W 122°23'0 0.0
2017-Jun-10 00:30N 47°40' W 122°23'0 0.0
2017-Jun-10 00:00N 47°40' W 122°23'0 0.0
2017-Jun-09 23:30N 47°40' W 122°23'0 0.0
2017-Jun-09 23:00N 47°40' W 122°23'0 0.0
2017-Jun-09 22:30N 47°40' W 122°23'0 0.0
2017-Jun-09 22:00N 47°40' W 122°23'0 0.0
2017-Jun-09 21:30N 47°40' W 122°23'0 0.0
2017-Jun-09 21:00N 47°40' W 122°23'0 0.0
2017-Jun-09 20:30N 47°40' W 122°23'0 0.0
2017-Jun-09 20:00N 47°40' W 122°23'0 0.0
2017-Jun-09 19:30N 47°40' W 122°23'1 1.2
2017-Jun-09 19:00N 47°39' W 122°22'0 0.0
2017-Jun-09 18:30N 47°39' W 122°22'0 0.0
2017-Jun-09 18:00N 47°39' W 122°22'0 0.0
2017-Jun-09 17:30N 47°39' W 122°22'0 0.0
2017-Jun-09 17:00N 47°39' W 122°22'0 0.0
2017-Jun-09 16:30N 47°39' W 122°22'1 1.2
2017-Jun-09 16:00N 47°40' W 122°23'0 0.0
2017-Jun-09 15:30N 47°40' W 122°23'0 0.0
2017-Jun-09 15:00N 47°40' W 122°23'0 0.0
2017-Jun-09 14:30N 47°40' W 122°23'0 0.0
2017-Jun-09 13:30N 47°40' W 122°23'0 0.0
2017-Jun-09 13:00N 47°40' W 122°23'0 0.0
2017-Jun-09 12:30N 47°40' W 122°23'0 0.0
2017-Jun-09 12:00N 47°40' W 122°23'0 0.0
2017-Jun-09 11:30N 47°40' W 122°23'0 0.0
2017-Jun-09 11:00N 47°40' W 122°23'0 0.0
2017-Jun-09 10:30N 47°40' W 122°23'0 0.0
2017-Jun-09 10:00N 47°40' W 122°23'0 0.0
2017-Jun-09 09:30N 47°40' W 122°23'0 0.0
2017-Jun-09 09:00N 47°40' W 122°23'0 0.0
2017-Jun-09 08:30N 47°40' W 122°23'0 0.0
2017-Jun-09 08:00N 47°40' W 122°23'0 0.0
2017-Jun-09 07:30N 47°40' W 122°23'0 0.0
2017-Jun-09 07:00N 47°40' W 122°23'0 0.0
2017-Jun-09 06:30N 47°40' W 122°23'0 0.0
2017-Jun-09 06:00N 47°40' W 122°23'0 0.0
2017-Jun-09 05:30N 47°40' W 122°23'0 0.0
2017-Jun-09 05:00N 47°40' W 122°23'0 0.0
2017-Jun-09 04:30N 47°40' W 122°23'0 0.0
2017-Jun-09 04:00N 47°40' W 122°23'0 0.0
2017-Jun-09 03:30N 47°40' W 122°23'0 0.0
2017-Jun-09 03:00N 47°40' W 122°23'0 0.0
2017-Jun-09 02:30N 47°40' W 122°23'0 0.0
2017-Jun-09 02:01N 47°40' W 122°23'0 0.0
2017-Jun-09 01:31N 47°40' W 122°23'0 0.0
2017-Jun-09 01:01N 47°40' W 122°23'0 0.0
2017-Jun-09 00:30N 47°40' W 122°23'0 0.0
2017-Jun-09 00:00N 47°40' W 122°23'0 0.0
2017-Jun-08 23:30N 47°40' W 122°23'0 0.0
2017-Jun-08 23:00N 47°40' W 122°23'0 0.0
2017-Jun-08 22:30N 47°40' W 122°23'0 0.0
2017-Jun-08 22:00N 47°40' W 122°23'0 0.0
2017-Jun-08 21:30N 47°40' W 122°23'0 0.0
2017-Jun-08 21:00N 47°40' W 122°23'0 0.0
2017-Jun-08 20:30N 47°40' W 122°23'0 0.0
2017-Jun-08 20:00N 47°40' W 122°23'0 0.0
2017-Jun-08 19:30N 47°40' W 122°23'0 0.0
2017-Jun-08 19:00N 47°40' W 122°23'0 0.0
2017-Jun-08 18:30N 47°40' W 122°23'0 0.0
2017-Jun-08 18:00N 47°40' W 122°23'0 0.0
2017-Jun-08 17:30N 47°40' W 122°23'0 0.0
2017-Jun-08 17:00N 47°40' W 122°23'0 0.0
2017-Jun-08 16:30N 47°40' W 122°23'0 0.0
2017-Jun-08 16:00N 47°40' W 122°23'0 0.0
2017-Jun-08 15:30N 47°40' W 122°23'0 0.0
2017-Jun-08 15:00N 47°40' W 122°23'0 0.0
2017-Jun-08 14:30N 47°40' W 122°23'0 0.0
2017-Jun-08 13:30N 47°40' W 122°23'0 0.0
2017-Jun-08 13:00N 47°40' W 122°23'0 0.0
2017-Jun-08 12:30N 47°40' W 122°23'0 0.0
2017-Jun-08 12:00N 47°40' W 122°23'0 0.0
2017-Jun-08 11:30N 47°40' W 122°23'0 0.0
2017-Jun-08 11:00N 47°40' W 122°23'0 0.0
2017-Jun-08 10:30N 47°40' W 122°23'0 0.0
2017-Jun-08 10:00N 47°40' W 122°23'0 0.0
2017-Jun-08 09:30N 47°40' W 122°23'0 0.0
2017-Jun-08 09:00N 47°40' W 122°23'0 0.0
2017-Jun-08 08:30N 47°40' W 122°23'0 0.0
2017-Jun-08 08:00N 47°40' W 122°23'0 0.0
2017-Jun-08 07:30N 47°40' W 122°23'0 0.0
2017-Jun-08 07:00N 47°40' W 122°23'0 0.0
2017-Jun-08 06:30N 47°40' W 122°23'0 0.0
2017-Jun-08 06:00N 47°40' W 122°23'0 0.0
2017-Jun-08 05:30N 47°40' W 122°23'0 0.0
2017-Jun-08 05:00N 47°40' W 122°23'0 0.0
2017-Jun-08 04:30N 47°40' W 122°23'0 0.0
2017-Jun-08 04:00N 47°40' W 122°23'0 0.0
2017-Jun-08 03:30N 47°40' W 122°23'0 0.0
2017-Jun-08 03:00N 47°40' W 122°23'0 0.0
2017-Jun-08 02:30N 47°40' W 122°23'0 0.0
2017-Jun-08 02:00N 47°40' W 122°23'0 0.0
2017-Jun-08 01:30N 47°40' W 122°23'0 0.0
2017-Jun-08 01:00N 47°40' W 122°23'0 0.0
2017-Jun-08 00:30N 47°40' W 122°23'0 0.0
2017-Jun-08 00:00N 47°40' W 122°23'0 0.0
2017-Jun-07 23:30N 47°40' W 122°23'0 0.0
2017-Jun-07 23:00N 47°40' W 122°23'0 0.0
2017-Jun-07 22:30N 47°40' W 122°23'0 0.0
2017-Jun-07 22:00N 47°40' W 122°23'0 0.0
2017-Jun-07 21:30N 47°40' W 122°23'0 0.0
2017-Jun-07 21:00N 47°40' W 122°23'0 0.0
2017-Jun-07 20:30N 47°40' W 122°23'0 0.0
2017-Jun-07 20:00N 47°40' W 122°23'0 0.0
2017-Jun-07 19:30N 47°40' W 122°23'0 0.0
2017-Jun-07 19:00N 47°40' W 122°23'0 0.0
2017-Jun-07 18:31N 47°40' W 122°23'0 0.0
2017-Jun-07 18:00N 47°40' W 122°23'0 0.0
2017-Jun-07 17:30N 47°40' W 122°23'0 0.0
2017-Jun-07 17:00N 47°40' W 122°23'0 0.0
2017-Jun-07 16:30N 47°40' W 122°23'0 0.0
2017-Jun-07 16:00N 47°40' W 122°23'0 0.0
2017-Jun-07 15:30N 47°40' W 122°23'0 0.0
2017-Jun-07 15:00N 47°40' W 122°23'0 0.0
2017-Jun-07 14:00N 47°40' W 122°23'0 0.0
2017-Jun-07 13:30N 47°40' W 122°23'0 0.0
2017-Jun-07 13:00N 47°40' W 122°23'0 0.0
2017-Jun-07 12:30N 47°40' W 122°23'0 0.0
2017-Jun-07 12:00N 47°40' W 122°23'0 0.0
2017-Jun-07 11:30N 47°40' W 122°23'0 0.0
2017-Jun-07 11:00N 47°40' W 122°23'0 0.0
2017-Jun-07 10:30N 47°40' W 122°23'0 0.0
2017-Jun-07 10:00N 47°40' W 122°23'0 0.0
2017-Jun-07 09:30N 47°40' W 122°23'0 0.0
2017-Jun-07 09:00N 47°40' W 122°23'0 0.0
2017-Jun-07 08:30N 47°40' W 122°23'0 0.0
2017-Jun-07 08:00N 47°40' W 122°23'0 0.0
2017-Jun-07 07:30N 47°40' W 122°23'0 0.0
2017-Jun-07 07:00N 47°40' W 122°23'0 0.0
2017-Jun-07 06:30N 47°40' W 122°23'0 0.0
2017-Jun-07 06:00N 47°40' W 122°23'0 0.0
2017-Jun-07 05:30N 47°40' W 122°23'0 0.0
2017-Jun-07 05:00N 47°40' W 122°23'0 0.0
2017-Jun-07 04:30N 47°40' W 122°23'0 0.0
2017-Jun-07 04:00N 47°40' W 122°23'0 0.0
2017-Jun-07 03:30N 47°40' W 122°23'0 0.0
2017-Jun-07 03:00N 47°40' W 122°23'0 0.0
2017-Jun-07 02:30N 47°40' W 122°23'0 0.0
2017-Jun-07 02:00N 47°40' W 122°23'0 0.0
2017-Jun-07 01:30N 47°40' W 122°23'0 0.0
2017-Jun-07 01:00N 47°40' W 122°23'0 0.0
2017-Jun-07 00:30N 47°40' W 122°23'0 0.0
2017-Jun-07 00:00N 47°40' W 122°23'0 0.0
2017-Jun-06 23:30N 47°40' W 122°23'0 0.0
2017-Jun-06 23:00N 47°40' W 122°23'0 0.0
2017-Jun-06 22:30N 47°40' W 122°23'0 0.0
2017-Jun-06 22:00N 47°40' W 122°23'0 0.0
2017-Jun-06 21:30N 47°40' W 122°23'0 0.0
2017-Jun-06 21:00N 47°40' W 122°23'0 0.0
2017-Jun-06 20:31N 47°40' W 122°23'0 0.0
2017-Jun-06 20:01N 47°40' W 122°23'0 0.0
2017-Jun-06 19:30N 47°40' W 122°23'0 0.0
2017-Jun-06 19:00N 47°40' W 122°23'0 0.0
2017-Jun-06 18:31N 47°40' W 122°23'0 0.0
2017-Jun-06 18:00N 47°40' W 122°23'0 0.0
2017-Jun-06 17:30N 47°40' W 122°23'0 0.0
2017-Jun-06 17:00N 47°40' W 122°23'0 0.0
2017-Jun-06 16:30N 47°40' W 122°23'0 0.0
2017-Jun-06 16:00N 47°40' W 122°23'0 0.0
2017-Jun-06 15:30N 47°40' W 122°23'0 0.0
2017-Jun-06 15:00N 47°40' W 122°23'0 0.0
2017-Jun-06 14:30N 47°40' W 122°23'0 0.0
2017-Jun-06 13:30N 47°40' W 122°23'0 0.0
2017-Jun-06 13:00N 47°40' W 122°23'0 0.0
2017-Jun-06 12:30N 47°40' W 122°23'0 0.0
2017-Jun-06 12:00N 47°40' W 122°23'0 0.0
2017-Jun-06 11:30N 47°40' W 122°23'0 0.0
2017-Jun-06 11:00N 47°40' W 122°23'0 0.0
2017-Jun-06 10:30N 47°40' W 122°23'0 0.0
2017-Jun-06 10:00N 47°40' W 122°23'0 0.0
2017-Jun-06 09:30N 47°40' W 122°23'0 0.0
2017-Jun-06 09:00N 47°40' W 122°23'0 0.0
2017-Jun-06 08:30N 47°40' W 122°23'0 0.0
2017-Jun-06 08:00N 47°40' W 122°23'0 0.0
2017-Jun-06 07:30N 47°40' W 122°23'0 0.0
2017-Jun-06 07:00N 47°40' W 122°23'0 0.0
2017-Jun-06 06:30N 47°40' W 122°23'0 0.0
2017-Jun-06 06:00N 47°40' W 122°23'0 0.0
2017-Jun-06 05:30N 47°40' W 122°23'0 0.0
2017-Jun-06 05:00N 47°40' W 122°23'0 0.0
2017-Jun-06 04:30N 47°40' W 122°23'0 0.0
2017-Jun-06 04:00N 47°40' W 122°23'0 0.0
2017-Jun-06 03:30N 47°40' W 122°23'0 0.0
2017-Jun-06 03:00N 47°40' W 122°23'0 0.0
2017-Jun-06 02:30N 47°40' W 122°23'0 0.0
2017-Jun-06 02:00N 47°40' W 122°23'0 0.0
2017-Jun-06 01:30N 47°40' W 122°23'0 0.0
2017-Jun-06 01:00N 47°40' W 122°23'0 0.0
2017-Jun-06 00:30N 47°40' W 122°23'0 0.0
2017-Jun-06 00:00N 47°40' W 122°23'0 0.0
2017-Jun-05 23:30N 47°40' W 122°23'0 0.0
2017-Jun-05 23:00N 47°40' W 122°23'0 0.0
2017-Jun-05 22:30N 47°40' W 122°23'0 0.0
2017-Jun-05 22:00N 47°40' W 122°23'0 0.0
2017-Jun-05 21:30N 47°40' W 122°23'0 0.0
2017-Jun-05 21:00N 47°40' W 122°23'0 0.0
2017-Jun-05 20:30N 47°40' W 122°23'0 0.0
2017-Jun-05 20:00N 47°40' W 122°23'0 0.0
2017-Jun-05 19:30N 47°40' W 122°23'0 0.0
2017-Jun-05 19:00N 47°40' W 122°23'0 0.0
2017-Jun-05 18:30N 47°40' W 122°23'0 0.0
2017-Jun-05 18:00N 47°40' W 122°23'0 0.0
2017-Jun-05 17:30N 47°40' W 122°23'0 0.0
2017-Jun-05 17:00N 47°40' W 122°23'0 0.0
2017-Jun-05 16:30N 47°40' W 122°23'  
Track history (hours):
 
Tides and Currents Weather Stations Pressure Air Temp Water Temp Dewpoint Dewpoint Depression Visibility Wind Speed Wind Dir Waves Ship Positions

M/V Yankee Clipper

Owner: M/V Yankee Clipper, Inc., Seattle, WA. More information available from US FCC via Universal Licensing System and Coast Guard Vessel Documentation Center.

Last reported at 2017-Jun-15 16:06 UTC. Time now 2017-Jun-23 23:54 UTC.
Position N 52°35' W 128°28'.
Warning: this ship's position is 8 days out of date.

Length 27 m; draft 4 m.

Type: Fishing. MMSI: 367016340.

Date/timePositionNaut miles runAvg speedWind from/ knotsBaromVisibWave heightAir tempDewpointWater temp
2017-Jun-15 16:06N 52°35' W 128°28'2 8.6
2017-Jun-15 15:54N 52°34' W 128°28'4 9.1
2017-Jun-15 15:30N 52°30' W 128°27'4 8.1
2017-Jun-15 14:59N 52°26' W 128°28'8 8.1
2017-Jun-15 14:00N 52°18' W 128°30'5 9.2
2017-Jun-15 13:28N 52°15' W 128°23'6 9.7
2017-Jun-15 12:52N 52°14' W 128°13'4 9.0
2017-Jun-15 12:28N 52°12' W 128°08'3 7.4
2017-Jun-15 12:00N 52°09' W 128°08'4 8.3
2017-Jun-15 11:30N 52°05' W 128°06'610.0
2017-Jun-15 10:53N 52°04' W 127°56'3 8.8
2017-Jun-15 10:30N 52°01' W 127°56'5 9.5
2017-Jun-15 10:00N 51°56' W 127°56'5 9.7
2017-Jun-15 09:30N 51°51' W 127°56'5 9.7
2017-Jun-15 09:00N 51°46' W 127°56'510.1
2017-Jun-15 08:30N 51°41' W 127°55'510.5
2017-Jun-15 08:00N 51°36' W 127°53'510.5
2017-Jun-15 07:30N 51°31' W 127°51'510.1
2017-Jun-15 07:00N 51°26' W 127°51'510.0
2017-Jun-15 06:30N 51°21' W 127°52'5 9.6
2017-Jun-15 06:00N 51°16' W 127°52'4 9.0
2017-Jun-15 05:30N 51°12' W 127°51'4 9.1
2017-Jun-15 05:00N 51°08' W 127°47'5 9.7
2017-Jun-15 04:30N 51°04' W 127°42'510.0
2017-Jun-15 04:00N 51°01' W 127°36'5 9.6
2017-Jun-15 03:30N 50°58' W 127°30'5 9.9
2017-Jun-15 03:00N 50°55' W 127°24'5 9.8
2017-Jun-15 02:29N 50°52' W 127°17'5 9.3
2017-Jun-15 02:00N 50°50' W 127°11'5 9.4
2017-Jun-15 01:30N 50°47' W 127°05'55 9.1
2017-Jun-14 19:30N 50°23' W 125°48'611.1
2017-Jun-14 18:57N 50°22' W 125°38'711.5
2017-Jun-14 18:22N 50°20' W 125°28'4 9.4
2017-Jun-14 17:56N 50°17' W 125°24'410.3
2017-Jun-14 17:30N 50°13' W 125°22'510.5
2017-Jun-14 17:00N 50°08' W 125°21'5 9.6
2017-Jun-14 16:30N 50°04' W 125°15'5 9.2
2017-Jun-14 16:00N 50°00' W 125°13'4 8.7
2017-Jun-14 15:30N 49°57' W 125°08'5 9.3
2017-Jun-14 15:00N 49°54' W 125°03'5 9.4
2017-Jun-14 14:30N 49°50' W 124°58'9 9.3
2017-Jun-14 13:30N 49°43' W 124°47'4 8.6
2017-Jun-14 13:01N 49°41' W 124°43'4 8.6
2017-Jun-14 12:31N 49°38' W 124°38'4 8.5
2017-Jun-14 12:00N 49°35' W 124°33'4 8.3
2017-Jun-14 11:29N 49°32' W 124°28'35 7.9
2017-Jun-14 07:00N 49°13' W 123°43'4 7.5
2017-Jun-14 06:29N 49°11' W 123°37'12 8.4
2017-Jun-14 05:03N 49°02' W 123°24'1 7.6
2017-Jun-14 04:58N 49°02' W 123°24'13 8.3
2017-Jun-14 03:24N 48°53' W 123°09'13 9.2
2017-Jun-14 01:59N 48°47' W 122°52'5 8.8
2017-Jun-14 01:28N 48°45' W 122°46'510.8
2017-Jun-14 01:00N 48°40' W 122°43'611.2
2017-Jun-14 00:30N 48°35' W 122°45'511.0
2017-Jun-14 00:00N 48°30' W 122°44'5 9.3
2017-Jun-13 23:30N 48°25' W 122°44'4 8.3
2017-Jun-13 23:00N 48°21' W 122°45'17 8.0
2017-Jun-13 20:52N 48°04' W 122°38'410.5
2017-Jun-13 20:30N 48°01' W 122°36'510.5
2017-Jun-13 20:00N 47°57' W 122°32'5 9.6
2017-Jun-13 19:30N 47°53' W 122°28'5 9.5
2017-Jun-13 19:00N 47°48' W 122°26'5 9.6
2017-Jun-13 18:30N 47°43' W 122°25'3 6.8
2017-Jun-13 18:00N 47°40' W 122°24'1 1.5
2017-Jun-13 17:30N 47°40' W 122°23'0 0.0
2017-Jun-13 17:00N 47°40' W 122°23'0 0.0
2017-Jun-13 16:30N 47°40' W 122°23'0 0.0
2017-Jun-13 16:00N 47°40' W 122°23'0 0.0
2017-Jun-13 15:30N 47°40' W 122°23'0 0.0
2017-Jun-13 15:00N 47°40' W 122°23'0 0.0
2017-Jun-13 14:30N 47°40' W 122°23'0 0.0
2017-Jun-13 13:30N 47°40' W 122°23'0 0.0
2017-Jun-13 13:00N 47°40' W 122°23'0 0.0
2017-Jun-13 12:30N 47°40' W 122°23'0 0.0
2017-Jun-13 12:00N 47°40' W 122°23'0 0.0
2017-Jun-13 11:30N 47°40' W 122°23'0 0.0
2017-Jun-13 11:00N 47°40' W 122°23'0 0.0
2017-Jun-13 10:30N 47°40' W 122°23'0 0.0
2017-Jun-13 10:00N 47°40' W 122°23'0 0.0
2017-Jun-13 09:30N 47°40' W 122°23'0 0.0
2017-Jun-13 09:00N 47°40' W 122°23'0 0.0
2017-Jun-13 08:30N 47°40' W 122°23'0 0.0
2017-Jun-13 08:00N 47°40' W 122°23'0 0.0
2017-Jun-13 07:30N 47°40' W 122°23'0 0.0
2017-Jun-13 07:00N 47°40' W 122°23'0 0.0
2017-Jun-13 06:30N 47°40' W 122°23'0 0.0
2017-Jun-13 06:00N 47°40' W 122°23'0 0.0
2017-Jun-13 05:30N 47°40' W 122°23'0 0.0
2017-Jun-13 05:00N 47°40' W 122°23'0 0.0
2017-Jun-13 04:30N 47°40' W 122°23'0 0.0
2017-Jun-13 04:00N 47°40' W 122°23'0 0.0
2017-Jun-13 03:30N 47°40' W 122°23'0 0.0
2017-Jun-13 03:00N 47°40' W 122°23'0 0.0
2017-Jun-13 02:30N 47°40' W 122°23'0 0.0
2017-Jun-13 02:00N 47°40' W 122°23'0 0.0
2017-Jun-13 01:30N 47°40' W 122°23'0 0.0
2017-Jun-13 01:00N 47°40' W 122°23'0 0.0
2017-Jun-13 00:30N 47°40' W 122°23'0 0.0
2017-Jun-13 00:00N 47°40' W 122°23'0 0.0
2017-Jun-12 23:30N 47°40' W 122°23'0 0.0
2017-Jun-12 23:00N 47°40' W 122°23'0 0.0
2017-Jun-12 22:30N 47°40' W 122°23'0 0.0
2017-Jun-12 22:00N 47°40' W 122°23'0 0.0
2017-Jun-12 21:30N 47°40' W 122°23'0 0.0
2017-Jun-12 21:00N 47°40' W 122°23'0 0.0
2017-Jun-12 20:30N 47°40' W 122°23'0 0.0
2017-Jun-12 20:00N 47°40' W 122°23'0 0.0
2017-Jun-12 19:30N 47°40' W 122°23'0 0.0
2017-Jun-12 19:00N 47°40' W 122°23'0 0.0
2017-Jun-12 18:30N 47°40' W 122°23'0 0.0
2017-Jun-12 18:00N 47°40' W 122°23'0 0.0
2017-Jun-12 17:30N 47°40' W 122°23'0 0.0
2017-Jun-12 17:00N 47°40' W 122°23'0 0.0
2017-Jun-12 16:30N 47°40' W 122°23'0 0.0
2017-Jun-12 16:00N 47°40' W 122°23'0 0.0
2017-Jun-12 15:30N 47°40' W 122°23'0 0.0
2017-Jun-12 15:00N 47°40' W 122°23'0 0.0
2017-Jun-12 14:30N 47°40' W 122°23'0 0.0
2017-Jun-12 13:30N 47°40' W 122°23'0 0.0
2017-Jun-12 13:00N 47°40' W 122°23'0 0.0
2017-Jun-12 12:30N 47°40' W 122°23'0 0.0
2017-Jun-12 12:00N 47°40' W 122°23'0 0.0
2017-Jun-12 11:30N 47°40' W 122°23'0 0.0
2017-Jun-12 11:00N 47°40' W 122°23'0 0.0
2017-Jun-12 10:31N 47°40' W 122°23'0 0.0
2017-Jun-12 10:00N 47°40' W 122°23'0 0.0
2017-Jun-12 09:30N 47°40' W 122°23'0 0.0
2017-Jun-12 09:00N 47°40' W 122°23'0 0.0
2017-Jun-12 08:30N 47°40' W 122°23'0 0.0
2017-Jun-12 08:00N 47°40' W 122°23'0 0.0
2017-Jun-12 07:30N 47°40' W 122°23'0 0.0
2017-Jun-12 07:00N 47°40' W 122°23'0 0.0
2017-Jun-12 06:30N 47°40' W 122°23'0 0.0
2017-Jun-12 06:00N 47°40' W 122°23'0 0.0
2017-Jun-12 05:30N 47°40' W 122°23'0 0.0
2017-Jun-12 05:00N 47°40' W 122°23'0 0.0
2017-Jun-12 04:31N 47°40' W 122°23'0 0.0
2017-Jun-12 04:00N 47°40' W 122°23'0 0.0
2017-Jun-12 03:30N 47°40' W 122°23'0 0.0
2017-Jun-12 03:00N 47°40' W 122°23'0 0.0
2017-Jun-12 02:30N 47°40' W 122°23'0 0.0
2017-Jun-12 02:00N 47°40' W 122°23'0 0.0
2017-Jun-12 01:30N 47°40' W 122°23'0 0.0
2017-Jun-12 01:00N 47°40' W 122°23'0 0.0
2017-Jun-12 00:30N 47°40' W 122°23'0 0.0
2017-Jun-12 00:00N 47°40' W 122°23'0 0.0
2017-Jun-11 23:30N 47°40' W 122°23'0 0.0
2017-Jun-11 23:00N 47°40' W 122°23'0 0.0
2017-Jun-11 22:30N 47°40' W 122°23'0 0.0
2017-Jun-11 22:00N 47°40' W 122°23'0 0.0
2017-Jun-11 21:30N 47°40' W 122°23'0 0.0
2017-Jun-11 21:00N 47°40' W 122°23'0 0.0
2017-Jun-11 20:30N 47°40' W 122°23'0 0.0
2017-Jun-11 20:00N 47°40' W 122°23'0 0.0
2017-Jun-11 19:30N 47°40' W 122°23'0 0.0
2017-Jun-11 19:00N 47°40' W 122°23'0 0.0
2017-Jun-11 18:30N 47°40' W 122°23'0 0.0
2017-Jun-11 18:00N 47°40' W 122°23'0 0.0
2017-Jun-11 17:30N 47°40' W 122°23'0 0.0
2017-Jun-11 17:00N 47°40' W 122°23'0 0.0
2017-Jun-11 16:30N 47°40' W 122°23'0 0.0
2017-Jun-11 16:00N 47°40' W 122°23'0 0.0
2017-Jun-11 15:30N 47°40' W 122°23'0 0.0
2017-Jun-11 15:00N 47°40' W 122°23'0 0.0
2017-Jun-11 14:30N 47°40' W 122°23'0 0.0
2017-Jun-11 13:30N 47°40' W 122°23'0 0.0
2017-Jun-11 13:00N 47°40' W 122°23'0 0.0
2017-Jun-11 12:30N 47°40' W 122°23'0 0.0
2017-Jun-11 12:00N 47°40' W 122°23'0 0.0
2017-Jun-11 11:30N 47°40' W 122°23'0 0.0
2017-Jun-11 11:00N 47°40' W 122°23'0 0.0
2017-Jun-11 10:30N 47°40' W 122°23'0 0.0
2017-Jun-11 10:00N 47°40' W 122°23'0 0.0
2017-Jun-11 09:30N 47°40' W 122°23'0 0.0
2017-Jun-11 09:00N 47°40' W 122°23'0 0.0
2017-Jun-11 08:30N 47°40' W 122°23'0 0.0
2017-Jun-11 08:00N 47°40' W 122°23'0 0.0
2017-Jun-11 07:30N 47°40' W 122°23'0 0.0
2017-Jun-11 07:00N 47°40' W 122°23'0 0.0
2017-Jun-11 06:30N 47°40' W 122°23'0 0.0
2017-Jun-11 06:00N 47°40' W 122°23'0 0.0
2017-Jun-11 05:30N 47°40' W 122°23'0 0.0
2017-Jun-11 05:00N 47°40' W 122°23'0 0.0
2017-Jun-11 04:30N 47°40' W 122°23'0 0.0
2017-Jun-11 04:00N 47°40' W 122°23'0 0.0
2017-Jun-11 03:30N 47°40' W 122°23'0 0.0
2017-Jun-11 03:00N 47°40' W 122°23'0 0.0
2017-Jun-11 02:30N 47°40' W 122°23'0 0.0
2017-Jun-11 02:00N 47°40' W 122°23'0 0.0
2017-Jun-11 01:30N 47°40' W 122°23'0 0.0
2017-Jun-11 01:00N 47°40' W 122°23'0 0.0
2017-Jun-11 00:30N 47°40' W 122°23'0 0.0
2017-Jun-11 00:00N 47°40' W 122°23'0 0.0
2017-Jun-10 23:30N 47°40' W 122°23'0 0.0
2017-Jun-10 23:00N 47°40' W 122°23'0 0.0
2017-Jun-10 22:30N 47°40' W 122°23'0 0.0
2017-Jun-10 22:00N 47°40' W 122°23'0 0.0
2017-Jun-10 21:30N 47°40' W 122°23'0 0.0
2017-Jun-10 21:00N 47°40' W 122°23'0 0.0
2017-Jun-10 20:30N 47°40' W 122°23'0 0.0
2017-Jun-10 20:00N 47°40' W 122°23'0 0.0
2017-Jun-10 19:30N 47°40' W 122°23'0 0.0
2017-Jun-10 19:00N 47°40' W 122°23'0 0.0
2017-Jun-10 18:30N 47°40' W 122°23'0 0.0
2017-Jun-10 18:00N 47°40' W 122°23'0 0.0
2017-Jun-10 17:30N 47°40' W 122°23'0 0.0
2017-Jun-10 17:01N 47°40' W 122°23'0 0.0
2017-Jun-10 16:30N 47°40' W 122°23'0 0.0
2017-Jun-10 16:00N 47°40' W 122°23'0 0.0
2017-Jun-10 15:30N 47°40' W 122°23'0 0.0
2017-Jun-10 15:00N 47°40' W 122°23'0 0.0
2017-Jun-10 14:00N 47°40' W 122°23'0 0.0
2017-Jun-10 13:30N 47°40' W 122°23'0 0.0
2017-Jun-10 13:00N 47°40' W 122°23'0 0.0
2017-Jun-10 12:30N 47°40' W 122°23'0 0.0
2017-Jun-10 12:00N 47°40' W 122°23'0 0.0
2017-Jun-10 11:30N 47°40' W 122°23'0 0.0
2017-Jun-10 11:00N 47°40' W 122°23'0 0.0
2017-Jun-10 10:30N 47°40' W 122°23'0 0.0
2017-Jun-10 10:00N 47°40' W 122°23'0 0.0
2017-Jun-10 09:30N 47°40' W 122°23'0 0.0
2017-Jun-10 09:00N 47°40' W 122°23'0 0.0
2017-Jun-10 08:30N 47°40' W 122°23'0 0.0
2017-Jun-10 08:00N 47°40' W 122°23'0 0.0
2017-Jun-10 07:30N 47°40' W 122°23'0 0.0
2017-Jun-10 07:00N 47°40' W 122°23'0 0.0
2017-Jun-10 06:30N 47°40' W 122°23'0 0.0
2017-Jun-10 06:00N 47°40' W 122°23'0 0.0
2017-Jun-10 05:30N 47°40' W 122°23'0 0.0
2017-Jun-10 05:00N 47°40' W 122°23'0 0.0
2017-Jun-10 04:30N 47°40' W 122°23'0 0.0
2017-Jun-10 04:00N 47°40' W 122°23'0 0.0
2017-Jun-10 03:30N 47°40' W 122°23'0 0.0
2017-Jun-10 03:00N 47°40' W 122°23'0 0.0
2017-Jun-10 02:30N 47°40' W 122°23'0 0.0
2017-Jun-10 02:00N 47°40' W 122°23'0 0.0
2017-Jun-10 01:30N 47°40' W 122°23'0 0.0
2017-Jun-10 01:00N 47°40' W 122°23'0 0.0
2017-Jun-10 00:30N 47°40' W 122°23'0 0.0
2017-Jun-10 00:00N 47°40' W 122°23'0 0.0
2017-Jun-09 23:30N 47°40' W 122°23'0 0.0
2017-Jun-09 23:00N 47°40' W 122°23'0 0.0
2017-Jun-09 22:30N 47°40' W 122°23'0 0.0
2017-Jun-09 22:00N 47°40' W 122°23'0 0.0
2017-Jun-09 21:30N 47°40' W 122°23'0 0.0
2017-Jun-09 21:00N 47°40' W 122°23'0 0.0
2017-Jun-09 20:30N 47°40' W 122°23'0 0.0
2017-Jun-09 20:00N 47°40' W 122°23'0 0.0
2017-Jun-09 19:30N 47°40' W 122°23'1 1.2
2017-Jun-09 19:00N 47°39' W 122°22'0 0.0
2017-Jun-09 18:30N 47°39' W 122°22'0 0.0
2017-Jun-09 18:00N 47°39' W 122°22'0 0.0
2017-Jun-09 17:30N 47°39' W 122°22'0 0.0
2017-Jun-09 17:00N 47°39' W 122°22'0 0.0
2017-Jun-09 16:30N 47°39' W 122°22'1 1.2
2017-Jun-09 16:00N 47°40' W 122°23'0 0.0
2017-Jun-09 15:30N 47°40' W 122°23'0 0.0
2017-Jun-09 15:00N 47°40' W 122°23'0 0.0
2017-Jun-09 14:30N 47°40' W 122°23'0 0.0
2017-Jun-09 13:30N 47°40' W 122°23'0 0.0
2017-Jun-09 13:00N 47°40' W 122°23'0 0.0
2017-Jun-09 12:30N 47°40' W 122°23'0 0.0
2017-Jun-09 12:00N 47°40' W 122°23'0 0.0
2017-Jun-09 11:30N 47°40' W 122°23'0 0.0
2017-Jun-09 11:00N 47°40' W 122°23'0 0.0
2017-Jun-09 10:30N 47°40' W 122°23'0 0.0
2017-Jun-09 10:00N 47°40' W 122°23'0 0.0
2017-Jun-09 09:30N 47°40' W 122°23'0 0.0
2017-Jun-09 09:00N 47°40' W 122°23'0 0.0
2017-Jun-09 08:30N 47°40' W 122°23'0 0.0
2017-Jun-09 08:00N 47°40' W 122°23'0 0.0
2017-Jun-09 07:30N 47°40' W 122°23'0 0.0
2017-Jun-09 07:00N 47°40' W 122°23'0 0.0
2017-Jun-09 06:30N 47°40' W 122°23'0 0.0
2017-Jun-09 06:00N 47°40' W 122°23'0 0.0
2017-Jun-09 05:30N 47°40' W 122°23'0 0.0
2017-Jun-09 05:00N 47°40' W 122°23'0 0.0
2017-Jun-09 04:30N 47°40' W 122°23'0 0.0
2017-Jun-09 04:00N 47°40' W 122°23'0 0.0
2017-Jun-09 03:30N 47°40' W 122°23'0 0.0
2017-Jun-09 03:00N 47°40' W 122°23'0 0.0
2017-Jun-09 02:30N 47°40' W 122°23'0 0.0
2017-Jun-09 02:01N 47°40' W 122°23'0 0.0
2017-Jun-09 01:31N 47°40' W 122°23'0 0.0
2017-Jun-09 01:01N 47°40' W 122°23'0 0.0
2017-Jun-09 00:30N 47°40' W 122°23'0 0.0
2017-Jun-09 00:00N 47°40' W 122°23'0 0.0
2017-Jun-08 23:30N 47°40' W 122°23'0 0.0
2017-Jun-08 23:00N 47°40' W 122°23'0 0.0
2017-Jun-08 22:30N 47°40' W 122°23'0 0.0
2017-Jun-08 22:00N 47°40' W 122°23'0 0.0
2017-Jun-08 21:30N 47°40' W 122°23'0 0.0
2017-Jun-08 21:00N 47°40' W 122°23'0 0.0
2017-Jun-08 20:30N 47°40' W 122°23'0 0.0
2017-Jun-08 20:00N 47°40' W 122°23'0 0.0
2017-Jun-08 19:30N 47°40' W 122°23'0 0.0
2017-Jun-08 19:00N 47°40' W 122°23'0 0.0
2017-Jun-08 18:30N 47°40' W 122°23'0 0.0
2017-Jun-08 18:00N 47°40' W 122°23'0 0.0
2017-Jun-08 17:30N 47°40' W 122°23'0 0.0
2017-Jun-08 17:00N 47°40' W 122°23'0 0.0
2017-Jun-08 16:30N 47°40' W 122°23'0 0.0
2017-Jun-08 16:00N 47°40' W 122°23'0 0.0
2017-Jun-08 15:30N 47°40' W 122°23'0 0.0
2017-Jun-08 15:00N 47°40' W 122°23'0 0.0
2017-Jun-08 14:30N 47°40' W 122°23'0 0.0
2017-Jun-08 13:30N 47°40' W 122°23'0 0.0
2017-Jun-08 13:00N 47°40' W 122°23'0 0.0
2017-Jun-08 12:30N 47°40' W 122°23'0 0.0
2017-Jun-08 12:00N 47°40' W 122°23'0 0.0
2017-Jun-08 11:30N 47°40' W 122°23'0 0.0
2017-Jun-08 11:00N 47°40' W 122°23'0 0.0
2017-Jun-08 10:30N 47°40' W 122°23'0 0.0
2017-Jun-08 10:00N 47°40' W 122°23'0 0.0
2017-Jun-08 09:30N 47°40' W 122°23'0 0.0
2017-Jun-08 09:00N 47°40' W 122°23'0 0.0
2017-Jun-08 08:30N 47°40' W 122°23'0 0.0
2017-Jun-08 08:00N 47°40' W 122°23'0 0.0
2017-Jun-08 07:30N 47°40' W 122°23'0 0.0
2017-Jun-08 07:00N 47°40' W 122°23'0 0.0
2017-Jun-08 06:30N 47°40' W 122°23'0 0.0
2017-Jun-08 06:00N 47°40' W 122°23'0 0.0
2017-Jun-08 05:30N 47°40' W 122°23'0 0.0
2017-Jun-08 05:00N 47°40' W 122°23'0 0.0
2017-Jun-08 04:30N 47°40' W 122°23'0 0.0
2017-Jun-08 04:00N 47°40' W 122°23'0 0.0
2017-Jun-08 03:30N 47°40' W 122°23'0 0.0
2017-Jun-08 03:00N 47°40' W 122°23'0 0.0
2017-Jun-08 02:30N 47°40' W 122°23'0 0.0
2017-Jun-08 02:00N 47°40' W 122°23'0 0.0
2017-Jun-08 01:30N 47°40' W 122°23'0 0.0
2017-Jun-08 01:00N 47°40' W 122°23'0 0.0
2017-Jun-08 00:30N 47°40' W 122°23'0 0.0
2017-Jun-08 00:00N 47°40' W 122°23'0 0.0
2017-Jun-07 23:30N 47°40' W 122°23'0 0.0
2017-Jun-07 23:00N 47°40' W 122°23'0 0.0
2017-Jun-07 22:30N 47°40' W 122°23'0 0.0
2017-Jun-07 22:00N 47°40' W 122°23'0 0.0
2017-Jun-07 21:30N 47°40' W 122°23'0 0.0
2017-Jun-07 21:00N 47°40' W 122°23'0 0.0
2017-Jun-07 20:30N 47°40' W 122°23'0 0.0
2017-Jun-07 20:00N 47°40' W 122°23'0 0.0
2017-Jun-07 19:30N 47°40' W 122°23'0 0.0
2017-Jun-07 19:00N 47°40' W 122°23'0 0.0
2017-Jun-07 18:31N 47°40' W 122°23'0 0.0
2017-Jun-07 18:00N 47°40' W 122°23'0 0.0
2017-Jun-07 17:30N 47°40' W 122°23'0 0.0
2017-Jun-07 17:00N 47°40' W 122°23'0 0.0
2017-Jun-07 16:30N 47°40' W 122°23'0 0.0
2017-Jun-07 16:00N 47°40' W 122°23'0 0.0
2017-Jun-07 15:30N 47°40' W 122°23'0 0.0
2017-Jun-07 15:00N 47°40' W 122°23'0 0.0
2017-Jun-07 14:00N 47°40' W 122°23'0 0.0
2017-Jun-07 13:30N 47°40' W 122°23'0 0.0
2017-Jun-07 13:00N 47°40' W 122°23'0 0.0
2017-Jun-07 12:30N 47°40' W 122°23'0 0.0
2017-Jun-07 12:00N 47°40' W 122°23'0 0.0
2017-Jun-07 11:30N 47°40' W 122°23'0 0.0
2017-Jun-07 11:00N 47°40' W 122°23'0 0.0
2017-Jun-07 10:30N 47°40' W 122°23'0 0.0
2017-Jun-07 10:00N 47°40' W 122°23'0 0.0
2017-Jun-07 09:30N 47°40' W 122°23'0 0.0
2017-Jun-07 09:00N 47°40' W 122°23'0 0.0
2017-Jun-07 08:30N 47°40' W 122°23'0 0.0
2017-Jun-07 08:00N 47°40' W 122°23'0 0.0
2017-Jun-07 07:30N 47°40' W 122°23'0 0.0
2017-Jun-07 07:00N 47°40' W 122°23'0 0.0
2017-Jun-07 06:30N 47°40' W 122°23'0 0.0
2017-Jun-07 06:00N 47°40' W 122°23'0 0.0
2017-Jun-07 05:30N 47°40' W 122°23'0 0.0
2017-Jun-07 05:00N 47°40' W 122°23'0 0.0
2017-Jun-07 04:30N 47°40' W 122°23'0 0.0
2017-Jun-07 04:00N 47°40' W 122°23'0 0.0
2017-Jun-07 03:30N 47°40' W 122°23'0 0.0
2017-Jun-07 03:00N 47°40' W 122°23'0 0.0
2017-Jun-07 02:30N 47°40' W 122°23'0 0.0
2017-Jun-07 02:00N 47°40' W 122°23'0 0.0
2017-Jun-07 01:30N 47°40' W 122°23'0 0.0
2017-Jun-07 01:00N 47°40' W 122°23'0 0.0
2017-Jun-07 00:30N 47°40' W 122°23'0 0.0
2017-Jun-07 00:00N 47°40' W 122°23'0 0.0
2017-Jun-06 23:30N 47°40' W 122°23'0 0.0
2017-Jun-06 23:00N 47°40' W 122°23'0 0.0
2017-Jun-06 22:30N 47°40' W 122°23'0 0.0
2017-Jun-06 22:00N 47°40' W 122°23'0 0.0
2017-Jun-06 21:30N 47°40' W 122°23'0 0.0
2017-Jun-06 21:00N 47°40' W 122°23'0 0.0
2017-Jun-06 20:31N 47°40' W 122°23'0 0.0
2017-Jun-06 20:01N 47°40' W 122°23'0 0.0
2017-Jun-06 19:30N 47°40' W 122°23'0 0.0
2017-Jun-06 19:00N 47°40' W 122°23'0 0.0
2017-Jun-06 18:31N 47°40' W 122°23'0 0.0
2017-Jun-06 18:00N 47°40' W 122°23'0 0.0
2017-Jun-06 17:30N 47°40' W 122°23'0 0.0
2017-Jun-06 17:00N 47°40' W 122°23'0 0.0
2017-Jun-06 16:30N 47°40' W 122°23'0 0.0
2017-Jun-06 16:00N 47°40' W 122°23'0 0.0
2017-Jun-06 15:30N 47°40' W 122°23'0 0.0
2017-Jun-06 15:00N 47°40' W 122°23'0 0.0
2017-Jun-06 14:30N 47°40' W 122°23'0 0.0
2017-Jun-06 13:30N 47°40' W 122°23'0 0.0
2017-Jun-06 13:00N 47°40' W 122°23'0 0.0
2017-Jun-06 12:30N 47°40' W 122°23'0 0.0
2017-Jun-06 12:00N 47°40' W 122°23'0 0.0
2017-Jun-06 11:30N 47°40' W 122°23'0 0.0
2017-Jun-06 11:00N 47°40' W 122°23'0 0.0
2017-Jun-06 10:30N 47°40' W 122°23'0 0.0
2017-Jun-06 10:00N 47°40' W 122°23'0 0.0
2017-Jun-06 09:30N 47°40' W 122°23'0 0.0
2017-Jun-06 09:00N 47°40' W 122°23'0 0.0
2017-Jun-06 08:30N 47°40' W 122°23'0 0.0
2017-Jun-06 08:00N 47°40' W 122°23'0 0.0
2017-Jun-06 07:30N 47°40' W 122°23'0 0.0
2017-Jun-06 07:00N 47°40' W 122°23'0 0.0
2017-Jun-06 06:30N 47°40' W 122°23'0 0.0
2017-Jun-06 06:00N 47°40' W 122°23'0 0.0
2017-Jun-06 05:30N 47°40' W 122°23'0 0.0
2017-Jun-06 05:00N 47°40' W 122°23'0 0.0
2017-Jun-06 04:30N 47°40' W 122°23'0 0.0
2017-Jun-06 04:00N 47°40' W 122°23'0 0.0
2017-Jun-06 03:30N 47°40' W 122°23'0 0.0
2017-Jun-06 03:00N 47°40' W 122°23'0 0.0
2017-Jun-06 02:30N 47°40' W 122°23'0 0.0
2017-Jun-06 02:00N 47°40' W 122°23'0 0.0
2017-Jun-06 01:30N 47°40' W 122°23'0 0.0
2017-Jun-06 01:00N 47°40' W 122°23'0 0.0
2017-Jun-06 00:30N 47°40' W 122°23'0 0.0
2017-Jun-06 00:00N 47°40' W 122°23'0 0.0
2017-Jun-05 23:30N 47°40' W 122°23'0 0.0
2017-Jun-05 23:00N 47°40' W 122°23'0 0.0
2017-Jun-05 22:30N 47°40' W 122°23'0 0.0
2017-Jun-05 22:00N 47°40' W 122°23'0 0.0
2017-Jun-05 21:30N 47°40' W 122°23'0 0.0
2017-Jun-05 21:00N 47°40' W 122°23'0 0.0
2017-Jun-05 20:30N 47°40' W 122°23'0 0.0
2017-Jun-05 20:00N 47°40' W 122°23'0 0.0
2017-Jun-05 19:30N 47°40' W 122°23'0 0.0
2017-Jun-05 19:00N 47°40' W 122°23'0 0.0
2017-Jun-05 18:30N 47°40' W 122°23'0 0.0
2017-Jun-05 18:00N 47°40' W 122°23'0 0.0
2017-Jun-05 17:30N 47°40' W 122°23'0 0.0
2017-Jun-05 17:00N 47°40' W 122°23'0 0.0
2017-Jun-05 16:30N 47°40' W 122°23'  

Dump ship's entire track history